createdAt,value
2022-11-18T00:03:35.044Z,10.00
2022-11-18T00:08:38.868Z,10.00
2022-11-18T00:13:59.729Z,9.90
2022-11-18T00:19:04.856Z,9.90
2022-11-18T00:24:09.050Z,10.00
2022-11-18T00:29:13.187Z,9.90
2022-11-18T00:34:19.231Z,9.90
2022-11-18T00:39:23.008Z,9.90
2022-11-18T00:44:26.992Z,9.90
2022-11-18T00:49:32.012Z,9.90
2022-11-18T00:54:35.822Z,9.90
2022-11-18T00:59:39.636Z,9.80
2022-11-18T01:04:44.798Z,9.80
2022-11-18T01:09:48.671Z,9.80
2022-11-18T01:14:52.415Z,9.90
2022-11-18T01:19:57.547Z,9.80
2022-11-18T01:25:01.241Z,9.80
2022-11-18T01:30:05.814Z,9.90
2022-11-18T01:35:11.550Z,9.90
2022-11-18T01:40:15.548Z,9.90
2022-11-18T01:45:38.877Z,9.90
2022-11-18T01:50:48.996Z,9.90
2022-11-18T01:55:55.383Z,9.90
2022-11-18T02:01:00.190Z,9.90
2022-11-18T02:06:07.825Z,9.90
2022-11-18T02:11:33.302Z,9.90
2022-11-18T02:16:58.214Z,9.90
2022-11-18T02:22:17.019Z,9.90
2022-11-18T02:27:54.139Z,9.90
2022-11-18T02:33:05.424Z,9.90
2022-11-18T02:38:13.979Z,9.90
2022-11-18T02:43:23.145Z,9.90
2022-11-18T02:48:31.989Z,10.00
2022-11-18T02:53:37.250Z,10.00
2022-11-18T02:58:40.993Z,9.90
2022-11-18T03:03:46.025Z,10.00
2022-11-18T03:08:56.699Z,9.90
2022-11-18T03:14:10.578Z,10.00
2022-11-18T03:19:23.168Z,10.00
2022-11-18T03:24:31.236Z,9.90
2022-11-18T03:29:39.424Z,9.90
2022-11-18T03:34:49.048Z,9.90
2022-11-18T03:40:00.546Z,9.90
2022-11-18T03:45:11.213Z,9.90
2022-11-18T03:50:21.971Z,9.90
2022-11-18T03:55:29.083Z,9.90
2022-11-18T04:00:35.397Z,9.90
2022-11-18T04:05:42.894Z,9.80
2022-11-18T04:10:51.502Z,9.80
2022-11-18T04:15:56.012Z,9.80
2022-11-18T04:21:01.222Z,9.70
2022-11-18T04:26:04.898Z,9.70
2022-11-18T04:31:08.624Z,9.70
2022-11-18T04:36:13.686Z,9.70
2022-11-18T04:41:17.388Z,9.60
2022-11-18T04:46:21.026Z,9.60
2022-11-18T04:51:26.118Z,9.60
2022-11-18T04:56:29.797Z,9.60
2022-11-18T05:01:34.269Z,9.60
2022-11-18T05:06:40.865Z,9.50
2022-11-18T05:12:01.923Z,9.50
2022-11-18T05:17:08.266Z,9.50
2022-11-18T05:22:13.363Z,9.40
2022-11-18T05:27:17.385Z,9.40
2022-11-18T05:32:21.118Z,9.30
2022-11-18T05:37:26.371Z,9.30
2022-11-18T05:42:47.411Z,9.30
2022-11-18T05:48:04.516Z,9.30
2022-11-18T05:53:09.916Z,9.30
2022-11-18T05:58:13.571Z,9.20
2022-11-18T06:03:20.380Z,9.20
2022-11-18T06:08:28.152Z,9.20
2022-11-18T06:13:35.668Z,9.10
2022-11-18T06:18:39.528Z,9.10
2022-11-18T06:23:45.597Z,9.10
2022-11-18T06:28:50.585Z,9.10
2022-11-18T06:33:57.096Z,9.10
2022-11-18T06:39:05.761Z,9.10
2022-11-18T06:44:09.664Z,9.10
2022-11-18T06:49:13.378Z,9.10
2022-11-18T06:54:18.735Z,9.00
2022-11-18T06:59:24.498Z,9.00
2022-11-18T07:04:28.180Z,9.00
2022-11-18T07:09:33.694Z,9.00
2022-11-18T07:14:37.542Z,9.00
2022-11-18T07:19:42.578Z,9.00
2022-11-18T07:24:50.570Z,9.00
2022-11-18T07:29:55.444Z,8.90
2022-11-18T07:34:59.226Z,8.90
2022-11-18T07:40:04.456Z,9.00
2022-11-18T07:45:09.444Z,8.90
2022-11-18T07:50:13.170Z,8.90
2022-11-18T07:55:18.584Z,8.90
2022-11-18T08:00:22.416Z,8.90
2022-11-18T08:05:26.214Z,8.90
2022-11-18T08:10:31.394Z,9.00
2022-11-18T08:15:35.140Z,9.00
2022-11-18T08:20:38.993Z,9.00
2022-11-18T08:25:45.411Z,9.00
2022-11-18T08:30:49.224Z,9.00
2022-11-18T08:35:53.076Z,9.00
2022-11-18T08:40:58.381Z,9.10
2022-11-18T08:46:02.104Z,9.10
2022-11-18T08:51:11.954Z,9.10
2022-11-18T08:56:19.455Z,9.10
2022-11-18T09:01:23.476Z,9.20
2022-11-18T09:06:27.285Z,9.20
2022-11-18T09:11:32.572Z,9.30
2022-11-18T09:16:36.863Z,9.30
2022-11-18T09:21:41.080Z,9.40
2022-11-18T09:26:50.311Z,9.40
2022-11-18T09:31:54.266Z,9.50
2022-11-18T09:36:58.139Z,9.50
2022-11-18T09:42:16.831Z,9.60
2022-11-18T09:47:28.681Z,9.70
2022-11-18T09:52:37.740Z,9.90
2022-11-18T09:57:47.498Z,10.00
2022-11-18T10:03:00.173Z,10.20
2022-11-18T10:08:15.512Z,10.30
2022-11-18T10:13:32.788Z,10.30
2022-11-18T10:24:13.615Z,10.40
2022-11-18T10:29:18.827Z,10.50
2022-11-18T10:34:22.560Z,10.50
2022-11-18T10:39:26.517Z,10.50
2022-11-18T10:44:34.513Z,10.50
2022-11-18T10:49:40.536Z,10.40
2022-11-18T10:54:44.661Z,10.40
2022-11-18T10:59:52.244Z,10.30
2022-11-18T11:04:56.167Z,10.40
2022-11-18T11:10:19.129Z,10.40
2022-11-18T11:15:30.906Z,10.40
2022-11-18T11:20:35.143Z,10.50
2022-11-18T11:31:17.907Z,10.60
2022-11-18T11:37:11.360Z,10.60
2022-11-18T11:42:36.465Z,10.70
2022-11-18T11:48:08.942Z,10.80
2022-11-18T11:53:27.823Z,10.80
2022-11-18T11:58:56.316Z,10.90
2022-11-18T12:04:27.580Z,11.10
2022-11-18T12:09:49.333Z,11.40
2022-11-18T12:15:16.352Z,11.40
2022-11-18T12:20:50.128Z,11.40
2022-11-18T12:26:03.682Z,11.40
2022-11-18T12:31:44.293Z,11.40
2022-11-18T12:37:19.332Z,11.40
2022-11-18T12:43:01.090Z,11.40
2022-11-18T12:48:48.682Z,11.40
2022-11-18T12:54:16.996Z,11.30
2022-11-18T12:59:29.293Z,11.30
2022-11-18T13:04:33.757Z,11.20
2022-11-18T13:09:43.156Z,11.20
2022-11-18T13:15:10.140Z,11.20
2022-11-18T13:20:29.439Z,11.10
2022-11-18T13:25:40.772Z,11.10
2022-11-18T13:30:55.834Z,11.00
2022-11-18T13:36:01.832Z,11.10
2022-11-18T13:41:24.281Z,11.10
2022-11-18T13:46:29.481Z,11.20
2022-11-18T13:51:35.918Z,11.20
2022-11-18T13:56:49.168Z,11.20
2022-11-18T14:02:04.389Z,11.20
2022-11-18T14:07:32.087Z,11.20
2022-11-18T14:12:38.328Z,11.20
2022-11-18T14:17:58.253Z,11.10
2022-11-18T14:23:05.679Z,11.10
2022-11-18T14:28:21.421Z,11.10
2022-11-18T14:33:28.072Z,11.00
2022-11-18T14:38:57.559Z,10.90
2022-11-18T14:44:09.594Z,10.90
2022-11-18T14:49:22.167Z,10.90
2022-11-18T14:54:41.447Z,10.80
2022-11-18T14:59:54.000Z,10.70
2022-11-18T15:05:09.673Z,10.70
2022-11-18T15:10:16.783Z,10.70
2022-11-18T15:15:28.210Z,10.60
2022-11-18T15:20:37.657Z,10.60
2022-11-18T15:25:46.047Z,10.60
2022-11-18T15:31:06.708Z,10.60
2022-11-18T15:36:45.852Z,10.60
2022-11-18T15:41:50.042Z,10.60
2022-11-18T15:47:00.274Z,10.60
2022-11-18T15:52:08.602Z,10.60
2022-11-18T15:57:24.487Z,10.60
2022-11-18T16:02:47.313Z,10.60
2022-11-18T16:08:12.779Z,10.50
2022-11-18T16:14:10.132Z,10.50
2022-11-18T16:19:35.976Z,10.50
2022-11-18T16:25:34.079Z,10.60
2022-11-18T16:31:22.752Z,10.60
2022-11-18T16:50:14.731Z,10.50
2022-11-18T17:04:05.647Z,10.60
2022-11-18T17:08:50.875Z,10.50
2022-11-18T17:19:27.218Z,10.50
2022-11-18T17:24:31.371Z,10.50
2022-11-18T17:29:35.694Z,10.60
2022-11-18T17:34:41.045Z,10.60
2022-11-18T17:39:44.899Z,10.50
2022-11-18T17:44:48.614Z,10.50
2022-11-18T17:49:55.807Z,10.50
2022-11-18T17:54:59.389Z,10.50
2022-11-18T18:00:03.329Z,10.60
2022-11-18T18:05:12.771Z,10.50
2022-11-18T18:10:17.055Z,10.60
2022-11-18T18:15:21.018Z,10.60
2022-11-18T18:20:26.440Z,10.50
2022-11-18T18:25:30.503Z,10.60
2022-11-18T18:30:34.341Z,10.60
2022-11-18T18:35:43.145Z,10.60
2022-11-18T18:40:47.359Z,10.50
2022-11-18T18:46:08.264Z,10.50
2022-11-18T18:51:13.884Z,10.50
2022-11-18T18:56:17.651Z,10.50
2022-11-18T19:01:22.536Z,10.50
2022-11-18T19:12:10.200Z,10.60
2022-11-18T19:17:14.452Z,10.60
2022-11-18T19:22:19.594Z,10.60
2022-11-18T19:27:23.452Z,10.60
2022-11-18T19:32:27.183Z,10.60
2022-11-18T19:37:33.717Z,10.60
2022-11-18T19:42:37.951Z,10.60
2022-11-18T19:47:41.676Z,10.60
2022-11-18T19:52:48.800Z,10.60
2022-11-18T19:57:52.281Z,10.60
2022-11-18T20:02:55.882Z,10.70
2022-11-18T20:08:01.059Z,10.60
2022-11-18T20:13:05.044Z,10.60
2022-11-18T20:18:11.885Z,10.60
2022-11-18T20:23:17.318Z,10.70
2022-11-18T20:28:21.325Z,10.70
2022-11-18T20:33:25.081Z,10.70
2022-11-18T20:38:30.292Z,10.60
2022-11-18T20:43:34.738Z,10.70
2022-11-18T20:48:39.649Z,10.70
2022-11-18T20:53:45.417Z,10.70
2022-11-18T20:58:49.264Z,10.70
2022-11-18T21:03:54.893Z,10.70
2022-11-18T21:09:01.617Z,10.70
2022-11-18T21:14:25.692Z,10.70
2022-11-18T21:19:30.558Z,10.70
2022-11-18T21:24:39.383Z,10.70
2022-11-18T21:29:46.568Z,10.60
2022-11-18T21:34:50.749Z,10.70
2022-11-18T21:39:57.375Z,10.70
2022-11-18T21:45:01.119Z,10.70
2022-11-18T21:50:05.408Z,10.70
2022-11-18T21:55:11.097Z,10.70
2022-11-18T22:00:15.845Z,10.70
2022-11-18T22:05:20.017Z,10.70
2022-11-18T22:10:25.332Z,10.70
2022-11-18T22:15:29.189Z,10.70
2022-11-18T22:20:33.156Z,10.70
2022-11-18T22:25:38.335Z,10.70
2022-11-18T22:30:58.143Z,10.70
2022-11-18T22:36:02.738Z,10.70
2022-11-18T22:41:09.543Z,10.70
2022-11-18T22:46:13.223Z,10.60
2022-11-18T22:51:16.972Z,10.60
2022-11-18T22:56:28.347Z,10.60
2022-11-18T23:01:32.210Z,10.50
2022-11-18T23:06:36.047Z,10.50
2022-11-18T23:11:58.561Z,10.40
2022-11-18T23:17:02.495Z,10.40
2022-11-18T23:22:06.172Z,10.30
2022-11-18T23:27:11.378Z,10.30
2022-11-18T23:32:15.091Z,10.20
2022-11-18T23:37:18.753Z,10.20
2022-11-18T23:42:23.838Z,10.10
2022-11-18T23:47:28.211Z,10.10
2022-11-18T23:52:31.923Z,10.00
2022-11-18T23:57:37.072Z,10.00
